General Aviation Weather

Text Reports

Enter one or more of the following location identifiers separated by a space:

Zip Code, Four-Character ICAO or Three-Character IATA airport codes.

METAR - Aviation Routine Weather Report
K5C1 - Boerne Stage Field, Texas
Updated at 1:55 PM GMT on August 26, 2016 (8:55 AM CDT):
METAR K5C1 261355Z AUTO 23005KT 10SM SCT008 BKN015 BKN021 23/22 A3009 RMK AO1
TAF - Terminal Area Forecast
K5C1 - Boerne Stage Field, Texas
Updated at 1:55 PM GMT on August 26, 2016 (8:55 AM CDT):
No TAF is currently available for this location.
Decoded:
No decoded TAF is available.
PIREP - Pilot Weather Report
K5C1 - Boerne Stage Field, Texas
Updated at 1:55 PM GMT on August 26, 2016 (8:55 AM CDT):
No PIREP is currently available for this location.
AIRMET - Airmens Meteorological Information
K5C1 - Boerne Stage Field, Texas
Updated at 1:55 PM GMT on August 26, 2016 (8:55 AM CDT):
No AIRMET is currently available for this location.
SIGMET - Significant Meteorological Information
K5C1 - Boerne Stage Field, Texas
Updated at 1:55 PM GMT on August 26, 2016 (8:55 AM CDT):
No SIGMET is currently available for this location.
NOTAM - Notice to Airmen
K5C1 - Boerne Stage Field, Texas
Updated at 1:55 PM GMT on August 26, 2016 (8:55 AM CDT):
No NOTAM is currently available for this location.
Forecast Area
K5C1 - Boerne Stage Field, Texas
Updated at 1:55 PM GMT on August 26, 2016 (8:55 AM CDT):
No NOTAM is currently available for this location.
Aviation Weather Maps